createdAt,value
2019-03-31T00:00:47.482Z,58.28
2019-03-31T00:03:16.176Z,58.30
2019-03-31T00:05:44.856Z,58.06
2019-03-31T00:08:13.543Z,58.38
2019-03-31T00:10:42.230Z,58.52
2019-03-31T00:13:10.917Z,58.22
2019-03-31T00:15:39.603Z,58.46
2019-03-31T00:18:08.288Z,58.89
2019-03-31T00:20:36.958Z,59.06
2019-03-31T00:23:05.710Z,58.59
2019-03-31T00:25:34.390Z,59.47
2019-03-31T00:28:03.123Z,59.32
2019-03-31T00:30:31.808Z,59.26
2019-03-31T00:33:00.562Z,59.36
2019-03-31T00:35:29.270Z,59.70
2019-03-31T00:37:57.901Z,59.73
2019-03-31T00:40:26.567Z,60.15
2019-03-31T00:42:55.247Z,60.66
2019-03-31T00:45:24.038Z,60.68
2019-03-31T00:47:52.722Z,60.38
2019-03-31T00:50:21.459Z,60.10
2019-03-31T00:52:50.132Z,60.12
2019-03-31T00:55:18.939Z,60.58
2019-03-31T00:57:47.622Z,60.82
2019-03-31T01:00:19.671Z,60.32
2019-03-31T01:02:48.478Z,59.73
2019-03-31T01:05:17.256Z,59.36
2019-03-31T01:07:46.244Z,59.53
2019-03-31T01:10:15.236Z,60.21
2019-03-31T01:12:44.526Z,60.14
2019-03-31T01:15:15.982Z,60.40
2019-03-31T01:17:44.651Z,60.63
2019-03-31T01:20:13.633Z,60.93
2019-03-31T01:22:42.319Z,61.40
2019-03-31T01:25:11.486Z,61.13
2019-03-31T01:27:40.201Z,61.87
2019-03-31T01:30:10.845Z,60.81
2019-03-31T01:32:39.831Z,60.92
2019-03-31T01:35:10.418Z,60.81
2019-03-31T01:37:39.306Z,61.01
2019-03-31T01:40:08.587Z,60.47
2019-03-31T01:42:37.346Z,60.32
2019-03-31T01:45:07.737Z,60.58
2019-03-31T01:47:36.464Z,61.15
2019-03-31T01:50:08.657Z,61.26
2019-03-31T01:52:37.670Z,61.44
2019-03-31T01:55:08.551Z,61.94
2019-03-31T01:57:37.232Z,62.17
2019-03-31T02:00:11.650Z,62.13
2019-03-31T02:02:40.347Z,62.46
2019-03-31T02:05:09.129Z,62.70
2019-03-31T02:07:37.824Z,63.00
2019-03-31T02:10:07.396Z,62.39
2019-03-31T02:12:36.250Z,63.10
2019-03-31T02:15:07.022Z,62.25
2019-03-31T02:17:35.714Z,62.38
2019-03-31T02:20:06.307Z,62.16
2019-03-31T02:22:35.030Z,62.73
2019-03-31T02:25:04.001Z,62.53
2019-03-31T02:27:32.758Z,62.69
2019-03-31T02:30:01.495Z,63.08
2019-03-31T02:32:30.183Z,62.86
2019-03-31T02:34:58.864Z,62.98
2019-03-31T02:37:27.542Z,63.86
2019-03-31T02:39:56.212Z,63.12
2019-03-31T02:42:24.993Z,64.04
2019-03-31T02:44:53.682Z,64.05
2019-03-31T02:47:22.474Z,63.36
2019-03-31T02:49:51.195Z,63.92
2019-03-31T02:52:20.190Z,63.62
2019-03-31T02:54:48.846Z,63.81
2019-03-31T02:57:19.065Z,64.26
2019-03-31T02:59:49.379Z,65.07
2019-03-31T03:02:18.991Z,64.65
2019-03-31T03:04:49.459Z,63.93
2019-03-31T03:07:18.746Z,64.15
2019-03-31T03:09:49.636Z,64.14
2019-03-31T03:12:19.418Z,64.57
2019-03-31T03:14:50.170Z,63.89
2019-03-31T03:17:18.852Z,64.07
2019-03-31T03:19:47.526Z,64.59
2019-03-31T03:22:16.312Z,64.27
2019-03-31T03:24:44.972Z,63.94
2019-03-31T03:27:13.658Z,63.33
2019-03-31T03:29:42.366Z,62.54
2019-03-31T03:32:11.089Z,63.02
2019-03-31T03:34:39.802Z,62.73
2019-03-31T03:37:08.480Z,62.98
2019-03-31T03:39:37.200Z,62.94
2019-03-31T03:42:05.942Z,63.83
2019-03-31T03:44:34.621Z,64.15
2019-03-31T03:47:03.269Z,64.76
2019-03-31T03:49:31.964Z,65.13
2019-03-31T03:52:00.883Z,65.62
2019-03-31T03:54:29.535Z,66.29
2019-03-31T03:56:58.220Z,65.32
2019-03-31T03:59:26.904Z,65.52
2019-03-31T04:01:55.599Z,65.43
2019-03-31T04:04:24.293Z,65.53
2019-03-31T04:06:52.965Z,65.38
2019-03-31T04:09:23.877Z,65.83
2019-03-31T04:11:52.545Z,66.11
2019-03-31T04:14:21.228Z,66.39
2019-03-31T04:16:49.911Z,66.29
2019-03-31T04:19:18.580Z,67.04
2019-03-31T04:21:47.418Z,67.23
2019-03-31T04:24:16.104Z,67.12
2019-03-31T04:26:44.765Z,67.14
2019-03-31T04:29:13.459Z,67.31
2019-03-31T04:31:42.125Z,67.46
2019-03-31T04:34:10.822Z,67.61
2019-03-31T04:36:39.497Z,66.96
2019-03-31T04:39:08.936Z,66.91
2019-03-31T04:41:37.596Z,66.52
2019-03-31T04:44:06.309Z,66.18
2019-03-31T04:46:34.951Z,66.10
2019-03-31T04:49:03.636Z,65.45
2019-03-31T04:51:32.317Z,64.77
2019-03-31T04:54:01.033Z,64.61
2019-03-31T04:56:29.695Z,63.64
2019-03-31T04:58:58.371Z,63.21
2019-03-31T05:01:27.072Z,63.12
2019-03-31T05:04:04.401Z,62.66
2019-03-31T05:06:26.173Z,61.98
2019-03-31T05:08:54.855Z,61.13
2019-03-31T05:11:23.584Z,61.01
2019-03-31T05:13:52.268Z,59.99
2019-03-31T05:16:20.957Z,59.79
2019-03-31T05:18:49.643Z,59.16
2019-03-31T05:21:18.321Z,58.41
2019-03-31T05:23:47.006Z,57.56
2019-03-31T05:26:15.694Z,57.31
2019-03-31T05:28:44.424Z,56.75
2019-03-31T05:31:13.067Z,56.71
2019-03-31T05:33:41.743Z,56.24
2019-03-31T05:36:10.420Z,56.37
2019-03-31T05:38:39.103Z,56.50
2019-03-31T05:41:07.768Z,56.29
2019-03-31T05:43:36.441Z,56.29
2019-03-31T05:46:06.011Z,55.86
2019-03-31T05:48:34.698Z,55.75
2019-03-31T05:51:03.410Z,55.09
2019-03-31T05:53:32.093Z,54.78
2019-03-31T05:56:00.780Z,54.69
2019-03-31T05:58:29.469Z,53.89
2019-03-31T06:00:58.149Z,52.60
2019-03-31T06:03:26.923Z,51.23
2019-03-31T06:05:55.670Z,49.07
2019-03-31T06:08:24.360Z,46.95
2019-03-31T06:10:53.049Z,44.88
2019-03-31T06:13:21.735Z,43.24
2019-03-31T06:15:50.419Z,41.51
2019-03-31T06:18:19.152Z,39.91
2019-03-31T06:20:47.834Z,39.39
2019-03-31T06:23:18.650Z,37.79
2019-03-31T06:25:47.059Z,36.71
2019-03-31T06:28:15.740Z,35.71
2019-03-31T06:30:44.427Z,34.16
2019-03-31T06:33:13.109Z,33.75
2019-03-31T06:35:41.800Z,32.25
2019-03-31T06:38:10.484Z,31.58
2019-03-31T06:40:40.066Z,31.42
2019-03-31T06:43:08.816Z,30.97
2019-03-31T06:45:37.498Z,30.92
2019-03-31T06:48:06.186Z,29.85
2019-03-31T06:50:34.870Z,29.70
2019-03-31T06:53:04.421Z,28.43
2019-03-31T06:55:33.182Z,28.20
2019-03-31T06:58:01.852Z,27.30
2019-03-31T07:00:30.540Z,27.01
2019-03-31T07:02:59.227Z,27.01
2019-03-31T07:05:27.910Z,27.51
2019-03-31T07:07:56.635Z,26.67
2019-03-31T07:10:25.357Z,26.29
2019-03-31T07:12:54.123Z,25.64
2019-03-31T07:15:22.831Z,25.74
2019-03-31T07:17:51.496Z,25.16
2019-03-31T07:20:20.227Z,24.79
2019-03-31T07:22:48.936Z,24.49
2019-03-31T07:25:20.214Z,24.44
2019-03-31T07:27:48.971Z,23.53
2019-03-31T07:30:19.958Z,23.25
2019-03-31T07:32:48.644Z,24.32
2019-03-31T07:35:19.029Z,23.50
2019-03-31T07:37:47.980Z,23.03
2019-03-31T07:40:22.668Z,23.14
2019-03-31T07:42:51.575Z,21.95
2019-03-31T07:45:20.567Z,21.93
2019-03-31T07:47:49.286Z,21.90
2019-03-31T07:50:18.965Z,24.99
2019-03-31T07:52:47.658Z,25.19
2019-03-31T07:55:17.242Z,22.62
2019-03-31T07:57:46.030Z,23.09
2019-03-31T08:00:20.917Z,22.66
2019-03-31T08:02:49.705Z,20.81
2019-03-31T08:05:32.088Z,21.02
2019-03-31T08:07:49.207Z,22.89
2019-03-31T08:10:18.681Z,23.93
2019-03-31T08:12:47.369Z,22.89
2019-03-31T08:15:16.952Z,22.64
2019-03-31T08:17:45.659Z,21.37
2019-03-31T08:20:16.454Z,21.46
2019-03-31T08:22:45.136Z,20.78
2019-03-31T08:25:16.018Z,20.67
2019-03-31T08:27:44.739Z,20.92
2019-03-31T08:30:15.568Z,20.23
2019-03-31T08:32:44.319Z,21.99
2019-03-31T08:35:13.402Z,22.12
2019-03-31T08:37:45.105Z,19.81
2019-03-31T08:40:14.543Z,18.76
2019-03-31T08:42:43.253Z,18.30
2019-03-31T08:45:12.549Z,19.09
2019-03-31T08:47:41.338Z,19.38
2019-03-31T08:50:12.851Z,18.73
2019-03-31T08:52:41.538Z,18.45
2019-03-31T08:55:11.361Z,18.04
2019-03-31T08:57:40.043Z,17.85
2019-03-31T09:00:12.409Z,16.47
2019-03-31T09:02:41.133Z,16.19
2019-03-31T09:05:10.393Z,16.43
2019-03-31T09:07:41.890Z,16.07
2019-03-31T09:10:10.815Z,16.03
2019-03-31T09:12:39.592Z,15.47
2019-03-31T09:15:10.365Z,15.22
2019-03-31T09:17:39.316Z,14.99
2019-03-31T09:20:09.034Z,15.13
2019-03-31T09:22:37.713Z,15.17
2019-03-31T09:25:11.020Z,15.94
2019-03-31T09:27:39.717Z,14.56
2019-03-31T09:30:10.959Z,14.22
2019-03-31T09:32:39.629Z,13.93
2019-03-31T09:35:09.311Z,14.31
2019-03-31T09:37:38.008Z,14.45
2019-03-31T09:40:08.757Z,14.56
2019-03-31T09:42:37.545Z,14.90
2019-03-31T09:45:08.620Z,16.82
2019-03-31T09:47:38.597Z,17.82
2019-03-31T09:50:12.488Z,16.54
2019-03-31T09:52:41.308Z,16.97
2019-03-31T09:55:10.974Z,15.22
2019-03-31T09:57:39.655Z,15.07
2019-03-31T10:00:14.273Z,14.74
2019-03-31T10:02:42.949Z,14.62
2019-03-31T10:05:12.347Z,14.19
2019-03-31T10:07:41.125Z,14.18
2019-03-31T10:10:11.979Z,13.87
2019-03-31T10:12:40.682Z,13.69
2019-03-31T10:15:09.607Z,13.54
2019-03-31T10:17:38.289Z,12.90
2019-03-31T10:20:07.064Z,13.55
2019-03-31T10:22:35.739Z,12.86
2019-03-31T10:25:06.810Z,13.09
2019-03-31T10:27:35.544Z,13.29
2019-03-31T10:30:06.359Z,13.91
2019-03-31T10:32:35.028Z,15.18
2019-03-31T10:35:04.595Z,14.26
2019-03-31T10:37:33.261Z,13.32
2019-03-31T10:40:02.003Z,13.13
2019-03-31T10:42:30.687Z,13.26
2019-03-31T10:44:59.362Z,12.62
2019-03-31T10:47:28.070Z,12.96
2019-03-31T10:49:56.732Z,12.90
2019-03-31T10:52:25.513Z,12.85
2019-03-31T10:54:54.206Z,12.32
2019-03-31T10:57:22.893Z,11.97
2019-03-31T10:59:51.579Z,11.21
2019-03-31T11:02:20.264Z,10.82
2019-03-31T11:04:48.966Z,11.59
2019-03-31T11:07:17.638Z,12.80
2019-03-31T11:09:46.338Z,12.69
2019-03-31T11:12:16.057Z,12.53
2019-03-31T11:14:44.756Z,11.88
2019-03-31T11:17:13.419Z,11.38
2019-03-31T11:19:42.103Z,11.19
2019-03-31T11:22:15.328Z,10.75
2019-03-31T11:24:43.988Z,10.94
2019-03-31T11:27:12.693Z,10.99
2019-03-31T11:29:41.381Z,11.59
2019-03-31T11:32:10.059Z,12.20
2019-03-31T11:34:38.727Z,12.28
2019-03-31T11:37:13.372Z,11.99
2019-03-31T11:39:37.838Z,12.54
2019-03-31T11:42:06.523Z,12.54
2019-03-31T11:44:35.205Z,12.80
2019-03-31T11:47:03.898Z,13.07
2019-03-31T11:49:32.583Z,12.64
2019-03-31T11:52:01.257Z,12.41
2019-03-31T11:54:29.948Z,13.13
2019-03-31T11:56:58.650Z,13.59
2019-03-31T11:59:27.343Z,14.03
2019-03-31T12:01:56.029Z,13.34
2019-03-31T12:04:24.710Z,13.40
2019-03-31T12:06:53.429Z,12.55
2019-03-31T12:09:22.174Z,12.48
2019-03-31T12:11:50.907Z,11.97
2019-03-31T12:14:19.586Z,12.12
2019-03-31T12:16:48.270Z,12.85
2019-03-31T12:19:16.964Z,13.94
2019-03-31T12:21:45.749Z,13.67
2019-03-31T12:24:14.432Z,13.33
2019-03-31T12:26:43.118Z,14.19
2019-03-31T12:29:11.834Z,13.94
2019-03-31T12:31:40.576Z,13.21
2019-03-31T12:34:09.258Z,13.48
2019-03-31T12:36:37.934Z,12.94
2019-03-31T12:39:08.910Z,13.39
2019-03-31T12:41:37.584Z,13.30
2019-03-31T12:44:06.269Z,12.90
2019-03-31T12:46:34.938Z,13.50
2019-03-31T12:49:03.602Z,14.90
2019-03-31T12:51:32.361Z,14.65
2019-03-31T12:54:01.052Z,13.56
2019-03-31T12:56:29.731Z,13.05
2019-03-31T12:58:58.402Z,12.73
2019-03-31T13:01:27.088Z,12.23
2019-03-31T13:03:55.810Z,14.36
2019-03-31T13:06:24.473Z,13.83
2019-03-31T13:08:53.171Z,14.24
2019-03-31T13:11:21.812Z,13.49
2019-03-31T13:13:50.495Z,12.59
2019-03-31T13:16:19.180Z,12.07
2019-03-31T13:18:47.870Z,11.79
2019-03-31T13:21:16.542Z,12.13
2019-03-31T13:23:45.248Z,12.46
2019-03-31T13:26:13.928Z,12.06
2019-03-31T13:28:42.611Z,12.82
2019-03-31T13:31:11.283Z,14.88
2019-03-31T13:33:39.986Z,15.29
2019-03-31T13:36:08.682Z,14.18
2019-03-31T13:38:37.350Z,14.81
2019-03-31T13:41:06.015Z,15.66
2019-03-31T13:43:34.729Z,15.14
2019-03-31T13:46:03.384Z,14.87
2019-03-31T13:48:32.064Z,14.46
2019-03-31T13:51:00.747Z,15.38
2019-03-31T13:53:29.424Z,15.10
2019-03-31T13:55:58.105Z,14.40
2019-03-31T13:58:28.692Z,13.78
2019-03-31T14:00:57.538Z,13.20
2019-03-31T14:03:26.269Z,13.20
2019-03-31T14:05:54.957Z,14.83
2019-03-31T14:08:25.869Z,14.28
2019-03-31T14:10:54.050Z,14.63
2019-03-31T14:13:22.717Z,14.85
2019-03-31T14:15:51.404Z,15.46
2019-03-31T14:18:20.095Z,14.31
2019-03-31T14:20:48.765Z,14.36
2019-03-31T14:23:17.451Z,14.28
2019-03-31T14:25:46.123Z,14.72
2019-03-31T14:28:14.800Z,14.47
2019-03-31T14:30:43.523Z,14.83
2019-03-31T14:33:12.167Z,14.61
2019-03-31T14:35:40.889Z,14.35
2019-03-31T14:38:09.576Z,14.64
2019-03-31T14:40:38.293Z,14.46
2019-03-31T14:43:06.970Z,15.24
2019-03-31T14:45:36.296Z,15.96
2019-03-31T14:48:05.317Z,17.29
2019-03-31T14:50:35.613Z,16.50
2019-03-31T14:53:05.092Z,16.60
2019-03-31T14:55:33.883Z,16.29
2019-03-31T14:58:02.586Z,17.44
2019-03-31T15:00:31.364Z,18.58
2019-03-31T15:03:00.071Z,19.23
2019-03-31T15:05:28.726Z,19.79
2019-03-31T15:07:58.713Z,19.71
2019-03-31T15:10:27.661Z,19.48
2019-03-31T15:12:56.359Z,19.24
2019-03-31T15:15:25.041Z,19.01
2019-03-31T15:17:53.752Z,19.48
2019-03-31T15:20:22.417Z,19.96
2019-03-31T15:22:51.533Z,20.37
2019-03-31T15:25:20.465Z,22.03
2019-03-31T15:27:49.173Z,23.36
2019-03-31T15:30:18.916Z,24.78
2019-03-31T15:32:47.593Z,26.07
2019-03-31T15:35:16.761Z,26.91
2019-03-31T15:37:45.450Z,27.42
2019-03-31T15:40:14.119Z,27.77
2019-03-31T15:42:42.808Z,28.21
2019-03-31T15:45:11.912Z,28.41
2019-03-31T15:47:40.717Z,28.24
2019-03-31T15:50:09.795Z,28.54
2019-03-31T15:52:38.484Z,28.88
2019-03-31T15:55:07.927Z,29.29
2019-03-31T15:57:36.614Z,29.68
2019-03-31T16:00:07.359Z,29.90
2019-03-31T16:02:36.041Z,30.06
2019-03-31T16:05:07.384Z,30.42
2019-03-31T16:07:36.054Z,30.48
2019-03-31T16:10:06.742Z,30.51
2019-03-31T16:12:35.489Z,30.64
2019-03-31T16:15:06.006Z,30.87
2019-03-31T16:17:34.712Z,30.78
2019-03-31T16:20:03.411Z,31.03
2019-03-31T16:22:32.084Z,31.37
2019-03-31T16:25:17.349Z,31.77
2019-03-31T16:27:46.033Z,32.15
2019-03-31T16:30:15.416Z,32.40
2019-03-31T16:32:44.105Z,32.65
2019-03-31T16:35:12.765Z,32.89
2019-03-31T16:37:41.452Z,33.21
2019-03-31T16:40:10.239Z,33.57
2019-03-31T16:42:39.027Z,33.83
2019-03-31T16:45:10.785Z,34.19
2019-03-31T16:47:39.464Z,34.31
2019-03-31T16:50:08.654Z,34.30
2019-03-31T16:52:37.379Z,34.50
2019-03-31T16:55:06.325Z,34.91
2019-03-31T16:57:35.016Z,35.07
2019-03-31T17:00:04.196Z,35.41
2019-03-31T17:02:32.868Z,35.63
2019-03-31T17:05:01.564Z,35.72
2019-03-31T17:07:30.242Z,36.03
2019-03-31T17:09:58.933Z,36.15
2019-03-31T17:12:27.615Z,36.27
2019-03-31T17:14:56.302Z,36.83
2019-03-31T17:17:24.982Z,37.38
2019-03-31T17:19:53.667Z,37.90
2019-03-31T17:22:22.365Z,38.22
2019-03-31T17:24:51.095Z,38.11
2019-03-31T17:27:19.831Z,38.17
2019-03-31T17:29:48.508Z,39.50
2019-03-31T17:32:17.307Z,38.92
2019-03-31T17:34:45.997Z,38.87
2019-03-31T17:37:14.687Z,38.43
2019-03-31T17:39:43.574Z,38.79
2019-03-31T17:42:12.251Z,39.04
2019-03-31T17:44:40.919Z,39.37
2019-03-31T17:47:09.608Z,39.42
2019-03-31T17:49:38.376Z,39.64
2019-03-31T17:52:07.049Z,39.79
2019-03-31T17:54:35.731Z,40.33
2019-03-31T17:57:04.515Z,41.42
2019-03-31T17:59:33.175Z,41.27
2019-03-31T18:02:01.851Z,41.42
2019-03-31T18:04:30.627Z,42.39
2019-03-31T18:06:59.311Z,42.10
2019-03-31T18:09:28.003Z,41.78
2019-03-31T18:11:56.724Z,41.92
2019-03-31T18:14:25.399Z,42.09
2019-03-31T18:16:54.073Z,42.10
2019-03-31T18:19:22.756Z,42.36
2019-03-31T18:21:51.440Z,42.62
2019-03-31T18:24:20.124Z,42.66
2019-03-31T18:26:48.808Z,43.15
2019-03-31T18:29:17.518Z,43.24
2019-03-31T18:31:46.203Z,43.26
2019-03-31T18:34:14.882Z,43.60
2019-03-31T18:36:43.552Z,43.79
2019-03-31T18:39:12.239Z,44.11
2019-03-31T18:41:40.924Z,44.65
2019-03-31T18:44:09.657Z,44.97
2019-03-31T18:46:38.355Z,45.29
2019-03-31T18:49:07.042Z,45.26
2019-03-31T18:51:35.751Z,45.46
2019-03-31T18:54:06.031Z,45.61
2019-03-31T18:56:42.339Z,45.38
2019-03-31T18:59:12.646Z,45.67
2019-03-31T19:01:42.890Z,45.85
2019-03-31T19:04:29.156Z,45.71
2019-03-31T19:06:59.505Z,45.95
2019-03-31T19:09:46.017Z,46.39
2019-03-31T19:12:16.272Z,46.33
2019-03-31T19:15:01.600Z,46.54
2019-03-31T19:17:49.456Z,46.66
2019-03-31T19:20:22.999Z,47.11
2019-03-31T19:22:53.230Z,47.67
2019-03-31T19:25:29.496Z,47.60
2019-03-31T19:27:59.744Z,47.67
2019-03-31T19:30:46.486Z,47.77
2019-03-31T19:33:32.003Z,47.94
2019-03-31T19:36:11.573Z,48.36
2019-03-31T19:38:58.277Z,48.57
2019-03-31T19:41:28.519Z,48.94
2019-03-31T19:43:58.763Z,48.89
2019-03-31T19:46:35.347Z,49.20
2019-03-31T19:49:05.585Z,49.33
2019-03-31T19:51:51.216Z,49.61
2019-03-31T19:54:24.247Z,49.31
2019-03-31T19:56:57.520Z,48.17
2019-03-31T19:59:36.722Z,47.27
2019-03-31T20:02:16.499Z,47.43
2019-03-31T20:04:52.522Z,47.14
2019-03-31T20:07:40.800Z,47.42
2019-03-31T20:10:23.554Z,47.42
2019-03-31T20:12:59.480Z,47.48
2019-03-31T20:15:45.717Z,47.88
2019-03-31T20:18:15.956Z,48.77
2019-03-31T20:20:48.913Z,48.89
2019-03-31T20:23:21.991Z,48.23
2019-03-31T20:26:01.010Z,48.58
2019-03-31T20:28:33.923Z,48.50
2019-03-31T20:31:20.137Z,47.84
2019-03-31T20:34:06.611Z,47.99
2019-03-31T20:36:53.082Z,48.02
2019-03-31T20:39:25.906Z,48.21
2019-03-31T20:41:59.030Z,48.58
2019-03-31T20:44:27.712Z,48.94
2019-03-31T20:46:56.390Z,49.15
2019-03-31T20:49:25.075Z,50.07
2019-03-31T20:51:53.818Z,50.32
2019-03-31T20:54:22.622Z,49.05
2019-03-31T20:56:51.289Z,49.23
2019-03-31T20:59:19.984Z,49.06
2019-03-31T21:01:48.677Z,49.49
2019-03-31T21:04:17.342Z,48.59
2019-03-31T21:06:46.045Z,48.09
2019-03-31T21:09:14.710Z,48.15
2019-03-31T21:11:43.498Z,48.21
2019-03-31T21:14:12.319Z,48.02
2019-03-31T21:16:40.982Z,49.46
2019-03-31T21:19:09.652Z,49.01
2019-03-31T21:21:38.341Z,48.63
2019-03-31T21:24:07.026Z,48.62
2019-03-31T21:26:35.722Z,49.92
2019-03-31T21:29:04.400Z,49.54
2019-03-31T21:31:33.091Z,49.53
2019-03-31T21:34:01.757Z,49.27
2019-03-31T21:36:30.442Z,49.64
2019-03-31T21:38:59.122Z,49.50
2019-03-31T21:41:27.826Z,50.70
2019-03-31T21:43:56.470Z,50.23
2019-03-31T21:46:25.144Z,49.98
2019-03-31T21:48:53.827Z,49.48
2019-03-31T21:51:22.532Z,49.06
2019-03-31T21:53:51.207Z,49.83
2019-03-31T21:56:19.988Z,50.20
2019-03-31T21:58:48.843Z,50.40
2019-03-31T22:01:17.888Z,50.58
2019-03-31T22:03:46.969Z,50.28
2019-03-31T22:06:15.751Z,50.31
2019-03-31T22:08:44.425Z,49.77
2019-03-31T22:11:13.116Z,50.02
2019-03-31T22:13:41.781Z,50.53
2019-03-31T22:16:10.509Z,50.64
2019-03-31T22:18:39.198Z,51.02
2019-03-31T22:21:07.858Z,51.22
2019-03-31T22:23:36.564Z,51.18
2019-03-31T22:26:05.332Z,51.20
2019-03-31T22:28:34.084Z,51.03
2019-03-31T22:31:02.919Z,51.34
2019-03-31T22:33:31.592Z,51.64
2019-03-31T22:36:17.652Z,51.99
2019-03-31T22:38:46.327Z,52.30
2019-03-31T22:41:15.001Z,52.44
2019-03-31T22:43:43.754Z,52.46
2019-03-31T22:46:12.436Z,52.52
2019-03-31T22:48:41.149Z,52.67
2019-03-31T22:51:10.241Z,54.26
2019-03-31T22:53:39.539Z,54.16
2019-03-31T22:56:08.219Z,54.13
2019-03-31T22:58:36.892Z,54.19
2019-03-31T23:01:05.597Z,55.38
2019-03-31T23:03:34.296Z,53.45
2019-03-31T23:06:03.107Z,54.10
2019-03-31T23:08:31.803Z,53.58
2019-03-31T23:11:00.504Z,53.44
2019-03-31T23:13:29.176Z,55.89
2019-03-31T23:15:57.851Z,55.13
2019-03-31T23:18:26.546Z,53.27
2019-03-31T23:20:55.217Z,54.81
2019-03-31T23:23:23.897Z,55.43
2019-03-31T23:25:52.613Z,54.19
2019-03-31T23:28:21.300Z,53.01
2019-03-31T23:30:49.982Z,54.63
2019-03-31T23:33:18.644Z,54.88
2019-03-31T23:35:47.332Z,55.66
2019-03-31T23:38:16.018Z,55.05
2019-03-31T23:40:44.686Z,56.13
2019-03-31T23:43:13.384Z,55.90
2019-03-31T23:45:42.062Z,57.41
2019-03-31T23:48:10.737Z,56.76
2019-03-31T23:50:39.412Z,56.61
2019-03-31T23:53:08.136Z,56.90
2019-03-31T23:55:36.817Z,56.49
2019-03-31T23:58:05.507Z,56.33
